Eviapetrol II — SY6858 — position and weather

sailwx.info

Track history (hours):
 
Tides and Currents Weather Stations Pressure Air Temp Water Temp Dewpoint Dewpoint Depression Visibility Wind Speed Wind Dir Waves Ship Positions

Eviapetrol II

Last reported at 2017-Feb-21 18:34 UTC. Time now 2017-Feb-21 19:06 UTC.
Position N 38°02' E 023°36'.

Length 78 m; draft 5.2 m.

Type: Tanker. MMSI: 240493000.

Date/timePositionNaut miles runAvg speedWind from/ knotsBaromVisibWave heightAir tempDewpointWater temp
2017-Feb-21 18:34N 38°02' E 023°36'0 0.0
2017-Feb-21 17:33N 38°02' E 023°36'0 0.0
2017-Feb-21 16:29N 38°02' E 023°36'0 0.0
2017-Feb-21 15:31N 38°02' E 023°36'0 0.1
2017-Feb-21 14:31N 38°02' E 023°36'2 1.2
2017-Feb-21 12:34N 38°01' E 023°33'7 6.7
2017-Feb-21 11:34N 37°55' E 023°35'10 9.7
2017-Feb-21 10:34N 37°47' E 023°42'  
2017-Feb-12 13:24N 37°38' E 023°55'7 8.4
2017-Feb-12 12:32N 37°39' E 023°46'8 8.7
2017-Feb-12 11:34N 37°45' E 023°39'9 9.4
2017-Feb-12 10:33N 37°54' E 023°35'8 6.7
2017-Feb-12 09:26N 38°01' E 023°32'0 0.0
2017-Feb-12 08:32N 38°01' E 023°32'0 0.0
2017-Feb-12 07:32N 38°01' E 023°32'0 0.0
2017-Feb-12 06:32N 38°01' E 023°32'  
Track history (hours):
 
Tides and Currents Weather Stations Pressure Air Temp Water Temp Dewpoint Dewpoint Depression Visibility Wind Speed Wind Dir Waves Ship Positions

Eviapetrol II

Last reported at 2017-Feb-21 18:34 UTC. Time now 2017-Feb-21 19:06 UTC.
Position N 38°02' E 023°36'.

Length 78 m; draft 5.2 m.

Type: Tanker. MMSI: 240493000.

Date/timePositionNaut miles runAvg speedWind from/ knotsBaromVisibWave heightAir tempDewpointWater temp
2017-Feb-21 18:34N 38°02' E 023°36'0 0.0
2017-Feb-21 17:33N 38°02' E 023°36'0 0.0
2017-Feb-21 16:29N 38°02' E 023°36'0 0.0
2017-Feb-21 15:31N 38°02' E 023°36'0 0.1
2017-Feb-21 14:31N 38°02' E 023°36'2 1.2
2017-Feb-21 12:34N 38°01' E 023°33'7 6.7
2017-Feb-21 11:34N 37°55' E 023°35'10 9.7
2017-Feb-21 10:34N 37°47' E 023°42'  
2017-Feb-12 13:24N 37°38' E 023°55'7 8.4
2017-Feb-12 12:32N 37°39' E 023°46'8 8.7
2017-Feb-12 11:34N 37°45' E 023°39'9 9.4
2017-Feb-12 10:33N 37°54' E 023°35'8 6.7
2017-Feb-12 09:26N 38°01' E 023°32'0 0.0
2017-Feb-12 08:32N 38°01' E 023°32'0 0.0
2017-Feb-12 07:32N 38°01' E 023°32'0 0.0
2017-Feb-12 06:32N 38°01' E 023°32'  

Dump ship's entire track history